Time;durP1;ratioP1;P1;durP2;ratioP2;P2;SDS_P1;SDS_P2;PMS_P1;PMS_P2;Temp;Humidity;BMP_temperature;BMP_pressure;BME280_temperature;BME280_humidity;BME280_pressure;Samples;Min_cycle;Max_cycle;Signal;HPM_P1;HPM_P2
2021/12/08 00:01:18;;;;;;;4.40;1.10;;;;;;;;;;5062649;28;20058;-53
2021/12/08 00:03:45;;;;;;;3.55;1.52;;;;;;;;;;5067429;28;20057;-50
2021/12/08 00:06:12;;;;;;;3.38;1.10;;;;;;;;;;5063305;28;20124;-56
2021/12/08 00:08:39;;;;;;;1.35;0.77;;;;;;;;;;5055494;28;20379;-55
2021/12/08 00:13:51;;;;;;;6.78;1.33;;;;;;;;;;5050136;28;20056;-54
2021/12/08 00:16:30;;;;;;;1.80;0.60;;;;;;;;;;5058204;28;20040;-54
2021/12/08 00:18:58;;;;;;;;;;;;;;;;;;5071189;28;20135;-50
2021/12/08 00:21:27;;;;;;;2.70;1.17;;;;;;;;;;5063709;28;19928;-51
2021/12/08 00:23:54;;;;;;;;;;;;;;;;;;5067034;28;20056;-50
2021/12/08 00:26:21;;;;;;;3.03;1.05;;;;;;;;;;5062761;28;20031;-51
2021/12/08 00:28:48;;;;;;;4.53;1.10;;;;;;;;;;5067426;28;20083;-54
2021/12/08 00:31:17;;;;;;;4.32;1.10;;;;;;;;;;5055493;28;20116;-56
2021/12/08 00:33:43;;;;;;;1.35;0.63;;;;;;;;;;5053277;28;20075;-56
2021/12/08 00:36:14;;;;;;;3.33;1.20;;;;;;;;;;5062621;28;20078;-56
2021/12/08 00:38:40;;;;;;;2.78;1.10;;;;;;;;;;5066870;28;20063;-54
2021/12/08 00:41:07;;;;;;;2.53;0.90;;;;;;;;;;5059238;28;20079;-53
2021/12/08 00:43:34;;;;;;;9.13;1.70;;;;;;;;;;5046079;28;20107;-56
2021/12/08 00:46:01;;;;;;;2.03;0.88;;;;;;;;;;5044482;28;20053;-56
2021/12/08 00:48:29;;;;;;;9.00;1.80;;;;;;;;;;5066633;28;20048;-51
2021/12/08 00:50:55;;;;;;;8.23;1.10;;;;;;;;;;5066626;28;20099;-55
2021/12/08 00:53:22;;;;;;;2.05;0.88;;;;;;;;;;5043693;28;20053;-54
2021/12/08 00:55:48;;;;;;;1.83;0.80;;;;;;;;;;5046719;28;20139;-52
2021/12/08 00:58:15;;;;;;;4.40;1.10;;;;;;;;;;5051654;28;20470;-51
2021/12/08 01:00:43;;;;;;;4.18;1.55;;;;;;;;;;5040229;28;20056;-55
2021/12/08 01:03:10;;;;;;;3.30;1.30;;;;;;;;;;5044385;28;20144;-53
2021/12/08 01:05:40;;;;;;;5.00;1.50;;;;;;;;;;5048008;28;20053;-56
2021/12/08 01:08:07;;;;;;;4.20;0.95;;;;;;;;;;5043688;28;20128;-54
2021/12/08 01:10:35;;;;;;;6.25;1.20;;;;;;;;;;5046992;28;20084;-53
2021/12/08 01:13:04;;;;;;;1.48;1.00;;;;;;;;;;5055065;28;20044;-55
2021/12/08 01:15:32;;;;;;;3.05;0.90;;;;;;;;;;5065859;28;20056;-56
2021/12/08 01:17:58;;;;;;;8.68;1.10;;;;;;;;;;5055678;28;20107;-56
2021/12/08 01:20:25;;;;;;;3.42;1.05;;;;;;;;;;5055152;28;20417;-55
2021/12/08 01:22:53;;;;;;;2.58;0.82;;;;;;;;;;5057401;28;20057;-53
2021/12/08 01:25:20;;;;;;;2.63;1.00;;;;;;;;;;5046093;28;20044;-58
2021/12/08 01:27:46;;;;;;;3.17;1.15;;;;;;;;;;5043321;28;20095;-55
2021/12/08 01:30:13;;;;;;;3.05;1.05;;;;;;;;;;5046498;28;20131;-57
2021/12/08 01:32:40;;;;;;;6.63;1.00;;;;;;;;;;5044848;28;20060;-56
2021/12/08 01:35:09;;;;;;;3.65;1.00;;;;;;;;;;5064602;28;20055;-53
2021/12/08 01:37:35;;;;;;;3.53;1.00;;;;;;;;;;5066781;28;20048;-55
2021/12/08 01:40:05;;;;;;;1.75;0.75;;;;;;;;;;5046030;28;20069;-54
2021/12/08 01:42:36;;;;;;;2.30;0.75;;;;;;;;;;5048831;28;20099;-56
2021/12/08 01:47:49;;;;;;;0.85;0.60;;;;;;;;;;5066183;28;20067;-56
2021/12/08 01:50:16;;;;;;;0.80;0.60;;;;;;;;;;5059462;28;20048;-56
2021/12/08 01:52:42;;;;;;;3.22;1.02;;;;;;;;;;5065712;28;20048;-55
2021/12/08 01:55:12;;;;;;;2.67;0.90;;;;;;;;;;5049843;28;20115;-55
2021/12/08 01:57:39;;;;;;;2.40;1.08;;;;;;;;;;5045888;28;20052;-57
2021/12/08 02:00:08;;;;;;;6.18;1.55;;;;;;;;;;5053699;28;20077;-56
2021/12/08 02:02:34;;;;;;;3.70;0.88;;;;;;;;;;5065683;28;20490;-56
2021/12/08 02:05:02;;;;;;;1.90;0.80;;;;;;;;;;5051261;28;20053;-55
2021/12/08 02:07:29;;;;;;;4.20;1.02;;;;;;;;;;5045805;28;20075;-56
2021/12/08 02:09:56;;;;;;;5.80;0.88;;;;;;;;;;5048508;28;20059;-55
2021/12/08 02:12:24;;;;;;;3.03;1.08;;;;;;;;;;5065153;28;20040;-54
2021/12/08 02:14:50;;;;;;;2.03;1.10;;;;;;;;;;5057630;28;20052;-56
2021/12/08 02:17:17;;;;;;;2.63;1.02;;;;;;;;;;5045669;28;20076;-54
2021/12/08 02:19:43;;;;;;;2.22;0.95;;;;;;;;;;5043056;28;20057;-54
2021/12/08 02:22:11;;;;;;;2.58;1.00;;;;;;;;;;5065209;28;20049;-55
2021/12/08 02:24:38;;;;;;;6.60;1.27;;;;;;;;;;5064770;28;20048;-53
2021/12/08 02:27:05;;;;;;;2.95;1.08;;;;;;;;;;5061573;28;20494;-55
2021/12/08 02:29:38;;;;;;;4.43;1.30;;;;;;;;;;5065457;28;20113;-52
2021/12/08 02:32:11;;;;;;;3.95;1.33;;;;;;;;;;5061474;28;20052;-55
2021/12/08 02:48:20;;;;;;;1.67;1.08;;;;;;;;;;5049247;28;20056;-56
2021/12/08 02:50:48;;;;;;;3.10;1.17;;;;;;;;;;5047129;28;20063;-56
2021/12/08 02:53:16;;;;;;;6.85;2.20;;;;;;;;;;5068651;28;20486;-52
2021/12/08 02:55:44;;;;;;;3.40;1.45;;;;;;;;;;5069863;28;20131;-53
2021/12/08 02:58:11;;;;;;;2.67;1.37;;;;;;;;;;5058945;28;20053;-50
2021/12/08 03:00:38;;;;;;;3.13;1.20;;;;;;;;;;5069402;28;20047;-55
2021/12/08 03:03:05;;;;;;;3.13;1.38;;;;;;;;;;5065725;28;20848;-52
2021/12/08 03:05:32;;;;;;;3.85;0.85;;;;;;;;;;5069649;28;20044;-51
2021/12/08 03:07:59;;;;;;;3.15;1.10;;;;;;;;;;5055080;28;20107;-55
2021/12/08 03:10:29;;;;;;;2.65;1.08;;;;;;;;;;5052261;28;20057;-54
2021/12/08 03:12:55;;;;;;;2.80;1.13;;;;;;;;;;5057169;28;20040;-55
2021/12/08 03:15:22;;;;;;;4.22;1.30;;;;;;;;;;5067784;28;20068;-53
2021/12/08 03:17:49;;;;;;;2.85;1.27;;;;;;;;;;5064375;28;20051;-55
2021/12/08 03:20:20;;;;;;;5.10;1.20;;;;;;;;;;5068667;28;20949;-53
2021/12/08 03:22:48;;;;;;;5.55;1.17;;;;;;;;;;5064505;28;20052;-52
2021/12/08 03:25:19;;;;;;;4.38;1.02;;;;;;;;;;5068097;28;20490;-50
2021/12/08 03:27:52;;;;;;;4.05;1.00;;;;;;;;;;5059831;28;20061;-56
2021/12/08 03:30:24;;;;;;;4.82;1.38;;;;;;;;;;5047976;28;20056;-56
2021/12/08 03:32:55;;;;;;;3.20;1.20;;;;;;;;;;5047924;28;20101;-56
2021/12/08 03:35:23;;;;;;;5.72;1.10;;;;;;;;;;5041056;28;20143;-55
2021/12/08 03:37:49;;;;;;;1.83;0.93;;;;;;;;;;5044315;28;20296;-55
2021/12/08 03:40:17;;;;;;;3.75;1.55;;;;;;;;;;5047735;28;20136;-54
2021/12/08 03:42:45;;;;;;;3.38;1.08;;;;;;;;;;5045465;28;20088;-57
2021/12/08 03:45:15;;;;;;;5.35;1.30;;;;;;;;;;5066401;28;20060;-51
2021/12/08 03:47:43;;;;;;;5.07;1.20;;;;;;;;;;5068178;28;20557;-54
2021/12/08 03:50:11;;;;;;;3.63;1.08;;;;;;;;;;5063916;28;20075;-54
2021/12/08 03:52:38;;;;;;;1.98;1.00;;;;;;;;;;5067960;28;20135;-54
2021/12/08 03:55:06;;;;;;;3.83;1.05;;;;;;;;;;5048923;28;20057;-52
2021/12/08 03:57:32;;;;;;;5.18;1.05;;;;;;;;;;5047640;28;20063;-53
2021/12/08 04:00:01;;;;;;;2.45;1.10;;;;;;;;;;5056536;28;20155;-51
2021/12/08 04:02:27;;;;;;;;;;;;;;;;;;5068881;28;20496;-55
2021/12/08 04:04:56;;;;;;;4.30;1.15;;;;;;;;;;5064698;28;19934;-54
2021/12/08 04:07:25;;;;;;;4.05;1.23;;;;;;;;;;5067805;28;20135;-54
2021/12/08 04:09:51;;;;;;;6.57;0.95;;;;;;;;;;5063320;28;20052;-55
2021/12/08 04:12:19;;;;;;;3.25;1.33;;;;;;;;;;5067001;28;20110;-53
2021/12/08 04:14:50;;;;;;;4.47;1.10;;;;;;;;;;5062673;28;20055;-51
2021/12/08 04:17:18;;;;;;;5.38;1.10;;;;;;;;;;5067848;28;20082;-56
2021/12/08 04:19:45;;;;;;;5.00;0.95;;;;;;;;;;5063582;28;20493;-52
2021/12/08 04:22:17;;;;;;;3.03;0.93;;;;;;;;;;5067088;28;20068;-55
2021/12/08 04:24:45;;;;;;;5.90;1.10;;;;;;;;;;5063465;28;20095;-56
2021/12/08 04:27:14;;;;;;;5.00;1.30;;;;;;;;;;5067759;28;20057;-54
2021/12/08 04:29:42;;;;;;;3.63;0.93;;;;;;;;;;5063433;28;20057;-55
2021/12/08 04:32:09;;;;;;;6.38;1.00;;;;;;;;;;5067718;28;20052;-52
2021/12/08 04:34:40;;;;;;;3.97;0.95;;;;;;;;;;5056436;28;20050;-57
2021/12/08 04:37:15;;;;;;;3.35;1.20;;;;;;;;;;5066467;28;20051;-54
2021/12/08 04:39:50;;;;;;;3.70;1.15;;;;;;;;;;5065916;28;20052;-53
2021/12/08 04:42:25;;;;;;;4.97;1.83;;;;;;;;;;5043763;28;20056;-56
2021/12/08 04:44:58;;;;;;;1.85;0.93;;;;;;;;;;5046418;28;20068;-54
2021/12/08 04:47:33;;;;;;;11.40;1.00;;;;;;;;;;5043638;28;20048;-57
2021/12/08 04:50:23;;;;;;;4.05;1.02;;;;;;;;;;5047190;28;20052;-56
2021/12/08 04:52:58;;;;;;;7.35;1.17;;;;;;;;;;5046719;28;20060;-55
2021/12/08 05:01:16;;;;;;;2.58;0.80;;;;;;;;;;5042647;28;20045;-53
2021/12/08 05:04:08;;;;;;;7.78;0.80;;;;;;;;;;5045964;28;20053;-55
2021/12/08 05:06:41;;;;;;;2.08;0.70;;;;;;;;;;5046748;28;20052;-50
2021/12/08 05:09:09;;;;;;;2.88;1.00;;;;;;;;;;5065985;28;20087;-52
2021/12/08 05:11:38;;;;;;;2.53;0.70;;;;;;;;;;5061393;28;20080;-55
2021/12/08 05:14:08;;;;;;;2.25;0.80;;;;;;;;;;5065479;28;20812;-54
2021/12/08 05:16:36;;;;;;;4.15;0.80;;;;;;;;;;5062548;28;20106;-55
2021/12/08 05:19:07;;;;;;;4.00;1.02;;;;;;;;;;5066251;28;20056;-55
2021/12/08 05:21:35;;;;;;;4.88;0.70;;;;;;;;;;5064674;28;20067;-55
2021/12/08 05:24:05;;;;;;;2.25;0.85;;;;;;;;;;5044650;28;20146;-56
2021/12/08 05:26:33;;;;;;;1.67;0.80;;;;;;;;;;5046049;28;20061;-55
2021/12/08 05:29:02;;;;;;;2.90;0.93;;;;;;;;;;5044458;28;20077;-54
2021/12/08 05:31:30;;;;;;;4.28;0.80;;;;;;;;;;5040796;28;20102;-53
2021/12/08 05:33:57;;;;;;;4.57;0.80;;;;;;;;;;5043294;28;20060;-54
2021/12/08 05:36:24;;;;;;;6.90;0.88;;;;;;;;;;5046331;28;20057;-55
2021/12/08 05:38:52;;;;;;;2.58;0.73;;;;;;;;;;5056476;28;20124;-54
2021/12/08 05:41:20;;;;;;;1.95;1.20;;;;;;;;;;5065678;28;20102;-55
2021/12/08 05:43:47;;;;;;;3.22;0.75;;;;;;;;;;5062504;28;20079;-55
2021/12/08 05:46:18;;;;;;;3.80;0.68;;;;;;;;;;5066435;28;20159;-54
2021/12/08 05:48:47;;;;;;;8.45;0.73;;;;;;;;;;5062299;28;20059;-52
2021/12/08 05:51:14;;;;;;;3.40;0.55;;;;;;;;;;5065922;28;20082;-55
2021/12/08 05:53:42;;;;;;;3.25;0.85;;;;;;;;;;5061994;28;20053;-56
2021/12/08 05:56:10;;;;;;;5.47;1.40;;;;;;;;;;5066421;28;20063;-54
2021/12/08 05:58:37;;;;;;;10.55;1.23;;;;;;;;;;5059070;28;20053;-53
2021/12/08 06:01:06;;;;;;;2.25;0.75;;;;;;;;;;5048734;28;20076;-53
2021/12/08 06:03:34;;;;;;;3.80;0.82;;;;;;;;;;5048035;28;20067;-55
2021/12/08 06:06:01;;;;;;;2.58;0.70;;;;;;;;;;5064270;28;20132;-56
2021/12/08 06:08:28;;;;;;;4.07;0.80;;;;;;;;;;5061055;28;20106;-55
2021/12/08 06:10:56;;;;;;;4.47;0.93;;;;;;;;;;5064635;28;20057;-55
2021/12/08 06:13:23;;;;;;;2.22;0.70;;;;;;;;;;5064757;28;20055;-55
2021/12/08 06:15:53;;;;;;;7.35;0.82;;;;;;;;;;5059731;28;20409;-56
2021/12/08 06:18:23;;;;;;;8.00;0.80;;;;;;;;;;5063216;28;20068;-58
2021/12/08 06:20:52;;;;;;;1.67;0.80;;;;;;;;;;5062714;28;20056;-56
2021/12/08 06:23:19;;;;;;;6.32;1.42;;;;;;;;;;5067253;28;20482;-55
2021/12/08 06:25:46;;;;;;;12.65;0.90;;;;;;;;;;5063647;28;20076;-54
2021/12/08 06:28:13;;;;;;;8.30;0.90;;;;;;;;;;5068907;28;20156;-53
2021/12/08 06:30:40;;;;;;;3.83;0.95;;;;;;;;;;5064467;28;20060;-54
2021/12/08 06:33:07;;;;;;;6.22;1.40;;;;;;;;;;5067167;28;20139;-56
2021/12/08 06:35:36;;;;;;;5.70;1.17;;;;;;;;;;5063845;28;20084;-52
2021/12/08 06:38:06;;;;;;;2.92;0.77;;;;;;;;;;5068719;28;20096;-53
2021/12/08 06:40:34;;;;;;;9.70;1.00;;;;;;;;;;5064401;28;20161;-54
2021/12/08 06:43:02;;;;;;;3.53;0.82;;;;;;;;;;5068590;28;20056;-55
2021/12/08 06:45:32;;;;;;;8.83;1.23;;;;;;;;;;5064101;28;20052;-55
2021/12/08 06:48:00;;;;;;;2.63;0.95;;;;;;;;;;5068724;28;20052;-54
2021/12/08 06:50:28;;;;;;;2.72;0.82;;;;;;;;;;5061857;28;20053;-55
2021/12/08 06:52:55;;;;;;;3.63;0.68;;;;;;;;;;5054058;28;20623;-52
2021/12/08 06:55:25;;;;;;;5.63;1.02;;;;;;;;;;5064150;28;20130;-56
2021/12/08 06:57:56;;;;;;;9.32;1.00;;;;;;;;;;5067243;28;20053;-55
2021/12/08 07:00:37;;;;;;;4.90;1.20;;;;;;;;;;5067304;28;20048;-54
2021/12/08 07:03:19;;;;;;;2.88;0.80;;;;;;;;;;5066950;28;20060;-56
2021/12/08 07:06:05;;;;;;;2.85;0.95;;;;;;;;;;5063835;28;20060;-57
2021/12/08 07:08:33;;;;;;;5.75;0.90;;;;;;;;;;5067338;28;20053;-55
2021/12/08 07:11:01;;;;;;;4.40;0.73;;;;;;;;;;5079524;28;20078;-56
2021/12/08 07:13:30;;;;;;;4.25;1.23;;;;;;;;;;5067954;28;20067;-56
2021/12/08 07:16:03;;;;;;;2.88;0.90;;;;;;;;;;5067957;28;20053;-52
2021/12/08 07:18:36;;;;;;;14.20;1.20;;;;;;;;;;5066095;28;20084;-52
2021/12/08 07:21:04;;;;;;;5.47;1.13;;;;;;;;;;5066775;28;20075;-55
2021/12/08 07:23:36;;;;;;;4.70;0.80;;;;;;;;;;5061476;28;20063;-55
2021/12/08 07:26:07;;;;;;;6.85;0.80;;;;;;;;;;5068667;28;20478;-51
2021/12/08 07:28:37;;;;;;;2.90;1.23;;;;;;;;;;5048714;28;20047;-53
2021/12/08 07:31:09;;;;;;;8.15;1.10;;;;;;;;;;5059434;28;20052;-56
2021/12/08 07:33:36;;;;;;;3.22;0.98;;;;;;;;;;5061922;28;20059;-56
2021/12/08 07:36:05;;;;;;;4.28;1.00;;;;;;;;;;5067483;28;20501;-54
2021/12/08 07:38:31;;;;;;;;;;;;;;;;;;5062593;28;20048;-55
2021/12/08 07:41:06;;;;;;;0.90;0.43;;;;;;;;;;5067363;28;19967;-56
2021/12/08 07:43:35;;;;;;;6.40;0.73;;;;;;;;;;5068397;28;20044;-55
2021/12/08 07:46:06;;;;;;;11.13;0.90;;;;;;;;;;5061481;28;20064;-55
2021/12/08 07:48:35;;;;;;;6.05;0.85;;;;;;;;;;5059943;28;20060;-53
2021/12/08 07:51:01;;;;;;;;;;;;;;;;;;5066154;28;20063;-55
2021/12/08 07:53:29;;;;;;;5.85;0.70;;;;;;;;;;5063015;28;19924;-55
2021/12/08 07:56:02;;;;;;;2.25;0.57;;;;;;;;;;5066753;28;20072;-57
2021/12/08 07:58:29;;;;;;;5.88;1.48;;;;;;;;;;5061923;28;20057;-55
2021/12/08 08:00:59;;;;;;;3.33;1.17;;;;;;;;;;5066879;28;20057;-54
2021/12/08 08:03:28;;;;;;;5.55;1.13;;;;;;;;;;5062443;28;20097;-54
2021/12/08 08:05:56;;;;;;;2.92;0.75;;;;;;;;;;5065928;28;20067;-51
2021/12/08 08:08:25;;;;;;;4.75;0.93;;;;;;;;;;5059339;28;20272;-56
2021/12/08 08:10:55;;;;;;;3.80;0.75;;;;;;;;;;5066344;28;20082;-54
2021/12/08 08:13:24;;;;;;;3.75;1.10;;;;;;;;;;5061931;28;20053;-54
2021/12/08 08:15:57;;;;;;;5.78;0.90;;;;;;;;;;5066231;28;20080;-55
2021/12/08 08:18:25;;;;;;;4.32;0.77;;;;;;;;;;5061280;28;20078;-54
2021/12/08 08:20:52;;;;;;;;;;;;;;;;;;5062841;28;20049;-55
2021/12/08 08:23:20;;;;;;;5.72;0.82;;;;;;;;;;5067829;28;19997;-54
2021/12/08 08:25:48;;;;;;;3.45;0.90;;;;;;;;;;5061572;28;20154;-52
2021/12/08 08:28:16;;;;;;;5.53;1.00;;;;;;;;;;5066144;28;20102;-54
2021/12/08 08:30:44;;;;;;;4.00;0.65;;;;;;;;;;5061649;28;20311;-54
2021/12/08 08:33:11;;;;;;;3.47;0.88;;;;;;;;;;5067613;28;20053;-52
2021/12/08 08:35:41;;;;;;;3.05;0.77;;;;;;;;;;5062080;28;20123;-53
2021/12/08 08:38:09;;;;;;;5.90;0.98;;;;;;;;;;5066661;28;20122;-55
2021/12/08 08:40:37;;;;;;;2.92;0.75;;;;;;;;;;5054091;28;20130;-53
2021/12/08 08:43:04;;;;;;;1.73;0.70;;;;;;;;;;5063901;28;20057;-53
2021/12/08 08:45:33;;;;;;;2.80;0.65;;;;;;;;;;5062443;28;20044;-51
2021/12/08 08:48:04;;;;;;;3.97;0.88;;;;;;;;;;5066849;28;20086;-56
2021/12/08 08:50:32;;;;;;;10.32;1.10;;;;;;;;;;5062425;28;20053;-56
2021/12/08 08:53:00;;;;;;;3.13;0.90;;;;;;;;;;5067565;28;20139;-55
2021/12/08 08:55:30;;;;;;;2.97;0.80;;;;;;;;;;5063193;28;20100;-53
2021/12/08 08:57:57;;;;;;;6.60;1.02;;;;;;;;;;5065212;28;20055;-56
2021/12/08 09:00:26;;;;;;;7.40;0.85;;;;;;;;;;5061850;28;20500;-54
2021/12/08 09:02:53;;;;;;;3.58;1.08;;;;;;;;;;5064273;28;20506;-56
2021/12/08 09:05:22;;;;;;;6.72;1.00;;;;;;;;;;5062690;28;20060;-57
2021/12/08 09:07:51;;;;;;;3.25;0.80;;;;;;;;;;5064807;28;20136;-52
2021/12/08 09:10:17;;;;;;;;;;;;;;;;;;5066073;28;20102;-53
2021/12/08 09:12:47;;;;;;;3.25;0.98;;;;;;;;;;5060417;28;19927;-55
2021/12/08 09:15:17;;;;;;;2.80;0.88;;;;;;;;;;5064764;28;20080;-56
2021/12/08 09:17:45;;;;;;;2.05;0.93;;;;;;;;;;5060316;28;20056;-54
2021/12/08 09:20:14;;;;;;;6.40;1.30;;;;;;;;;;5063002;28;20052;-56
2021/12/08 09:22:44;;;;;;;2.65;0.75;;;;;;;;;;5059564;28;20072;-53
2021/12/08 09:25:13;;;;;;;5.15;1.20;;;;;;;;;;5058609;28;20360;-52
2021/12/08 09:27:42;;;;;;;5.05;1.23;;;;;;;;;;5061158;28;20147;-55
2021/12/08 09:30:08;;;;;;;;;;;;;;;;;;5065739;28;20072;-52
2021/12/08 09:32:39;;;;;;;1.70;0.73;;;;;;;;;;5060214;28;19920;-54
2021/12/08 09:35:10;;;;;;;4.05;0.60;;;;;;;;;;5064749;28;20052;-52
2021/12/08 09:37:39;;;;;;;2.30;0.95;;;;;;;;;;5061547;28;20060;-52
2021/12/08 09:40:10;;;;;;;7.05;1.33;;;;;;;;;;5065140;28;20083;-55
2021/12/08 09:42:39;;;;;;;6.82;1.90;;;;;;;;;;5059630;28;20048;-51
2021/12/08 09:45:06;;;;;;;;;;;;;;;;;;5066104;28;20483;-54
2021/12/08 09:47:32;;;;;;;5.25;1.27;;;;;;;;;;5061060;28;19988;-53
2021/12/08 09:50:01;;;;;;;6.43;1.20;;;;;;;;;;5066078;28;20076;-51
2021/12/08 09:52:30;;;;;;;6.60;1.10;;;;;;;;;;5058696;28;20568;-52
2021/12/08 09:54:57;;;;;;;2.50;0.70;;;;;;;;;;5063552;28;20052;-51
2021/12/08 09:57:24;;;;;;;4.43;0.93;;;;;;;;;;5062758;28;20056;-52
2021/12/08 09:59:50;;;;;;;3.55;0.90;;;;;;;;;;5064802;28;20116;-53
2021/12/08 10:02:25;;;;;;;10.50;1.00;;;;;;;;;;5064771;28;20542;-51
2021/12/08 10:04:52;;;;;;;3.65;1.00;;;;;;;;;;5060734;28;20080;-53
2021/12/08 10:07:20;;;;;;;5.35;1.02;;;;;;;;;;5065322;28;20380;-53
2021/12/08 10:09:49;;;;;;;8.90;1.02;;;;;;;;;;5061473;28;20147;-53
2021/12/08 10:12:15;;;;;;;4.28;1.00;;;;;;;;;;5063507;28;20125;-52
2021/12/08 10:14:46;;;;;;;3.50;1.15;;;;;;;;;;5062548;28;20048;-54
2021/12/08 10:17:13;;;;;;;4.32;1.27;;;;;;;;;;5065673;28;20045;-55
2021/12/08 10:19:39;;;;;;;5.45;0.90;;;;;;;;;;5061656;28;20142;-52
2021/12/08 10:22:16;;;;;;;5.50;1.00;;;;;;;;;;5066591;28;20262;-55
2021/12/08 10:25:01;;;;;;;2.90;0.95;;;;;;;;;;5060190;28;20052;-56
2021/12/08 10:27:27;;;;;;;3.50;0.98;;;;;;;;;;5064761;28;20052;-56
2021/12/08 10:29:54;;;;;;;6.32;0.90;;;;;;;;;;5060385;28;20139;-55
2021/12/08 10:32:20;;;;;;;1.10;0.73;;;;;;;;;;5064060;28;20064;-52
2021/12/08 10:34:58;;;;;;;2.63;0.90;;;;;;;;;;5059666;28;20040;-54
2021/12/08 10:37:25;;;;;;;0.88;0.50;;;;;;;;;;5062497;28;20358;-53
2021/12/08 10:39:56;;;;;;;3.88;0.95;;;;;;;;;;5060222;28;20147;-55
2021/12/08 10:42:23;;;;;;;2.63;0.80;;;;;;;;;;5064118;28;20147;-55
2021/12/08 10:44:55;;;;;;;4.65;0.90;;;;;;;;;;5059207;28;20052;-55
2021/12/08 10:47:23;;;;;;;0.98;0.60;;;;;;;;;;5064820;28;20048;-56
2021/12/08 10:55:24;;;;;;;8.90;0.95;;;;;;;;;;5059396;28;20429;-53
2021/12/08 10:57:50;;;;;;;;;;;;;;;;;;5064448;28;20057;-53
2021/12/08 11:00:18;;;;;;;3.78;0.80;;;;;;;;;;5060147;28;19934;-55
2021/12/08 11:02:50;;;;;;;2.25;0.57;;;;;;;;;;5064288;28;20087;-55
2021/12/08 11:05:40;;;;;;;7.22;0.93;;;;;;;;;;5059515;28;20048;-57
2021/12/08 11:08:19;;;;;;;3.90;0.90;;;;;;;;;;5066877;28;20067;-53
2021/12/08 11:10:49;;;;;;;1.48;0.70;;;;;;;;;;5063641;28;20141;-56
2021/12/08 11:13:17;;;;;;;4.55;0.95;;;;;;;;;;5068547;28;20075;-54
2021/12/08 11:15:44;;;;;;;5.50;0.80;;;;;;;;;;5062843;28;20424;-52
2021/12/08 11:18:16;;;;;;;2.97;0.80;;;;;;;;;;5066413;28;20060;-53
2021/12/08 11:20:47;;;;;;;2.08;0.70;;;;;;;;;;5065811;28;20063;-53
2021/12/08 11:23:17;;;;;;;3.85;1.10;;;;;;;;;;5067150;28;20167;-55
2021/12/08 11:25:45;;;;;;;3.53;0.90;;;;;;;;;;5069129;28;20089;-52
2021/12/08 11:28:19;;;;;;;3.72;0.80;;;;;;;;;;5062646;28;20264;-56
2021/12/08 11:30:45;;;;;;;4.40;0.70;;;;;;;;;;5067962;28;20113;-53
2021/12/08 11:33:13;;;;;;;3.40;0.75;;;;;;;;;;5063662;28;20138;-54
2021/12/08 11:35:42;;;;;;;2.38;0.52;;;;;;;;;;5067960;28;20143;-51
2021/12/08 11:38:08;;;;;;;3.42;0.77;;;;;;;;;;5063924;28;20491;-55
2021/12/08 11:40:35;;;;;;;4.40;0.75;;;;;;;;;;5066799;28;20426;-51
2021/12/08 11:43:03;;;;;;;2.22;0.85;;;;;;;;;;5061936;28;20114;-56
2021/12/08 11:45:36;;;;;;;5.38;0.90;;;;;;;;;;5068842;28;20052;-53
2021/12/08 11:48:04;;;;;;;6.30;1.10;;;;;;;;;;5065152;28;20072;-53
2021/12/08 11:50:32;;;;;;;4.80;0.85;;;;;;;;;;5067823;28;20059;-55
2021/12/08 11:52:59;;;;;;;2.58;0.80;;;;;;;;;;5062949;28;20052;-55
2021/12/08 11:55:26;;;;;;;2.88;0.73;;;;;;;;;;5066710;28;20511;-49
2021/12/08 11:57:54;;;;;;;7.30;0.95;;;;;;;;;;5058508;28;20080;-55
2021/12/08 12:00:22;;;;;;;4.10;0.90;;;;;;;;;;5067274;28;20132;-57
2021/12/08 12:02:55;;;;;;;4.15;0.98;;;;;;;;;;5062655;28;20056;-52
2021/12/08 12:05:24;;;;;;;4.20;0.95;;;;;;;;;;5065782;28;20059;-54
2021/12/08 12:07:51;;;;;;;1.67;0.80;;;;;;;;;;5063064;28;20056;-55
2021/12/08 12:10:19;;;;;;;6.05;0.80;;;;;;;;;;5066537;28;20106;-55
2021/12/08 12:12:45;;;;;;;1.83;0.80;;;;;;;;;;5062029;28;20101;-56
2021/12/08 12:15:14;;;;;;;4.80;1.17;;;;;;;;;;5068411;28;20093;-53
2021/12/08 12:17:40;;;;;;;3.50;1.40;;;;;;;;;;5066741;28;20057;-53
2021/12/08 12:20:12;;;;;;;3.63;1.30;;;;;;;;;;5062372;28;20052;-54
2021/12/08 12:22:41;;;;;;;4.85;1.05;;;;;;;;;;5066399;28;20060;-54
2021/12/08 12:25:26;;;;;;;2.40;0.98;;;;;;;;;;5061499;28;20084;-54
2021/12/08 12:27:58;;;;;;;2.75;0.90;;;;;;;;;;5064701;28;20063;-54
2021/12/08 12:30:30;;;;;;;2.17;0.80;;;;;;;;;;5060910;28;20161;-54
2021/12/08 12:32:57;;;;;;;4.00;0.75;;;;;;;;;;5065077;28;20090;-52
2021/12/08 12:35:28;;;;;;;1.83;0.77;;;;;;;;;;5062392;28;20052;-52
2021/12/08 12:38:00;;;;;;;7.30;1.50;;;;;;;;;;5065924;28;20161;-55
2021/12/08 12:40:31;;;;;;;2.33;1.02;;;;;;;;;;5061960;28;20109;-52
2021/12/08 12:42:58;;;;;;;2.58;0.68;;;;;;;;;;5066220;28;20066;-49
2021/12/08 12:45:25;;;;;;;3.03;1.08;;;;;;;;;;5061392;28;20080;-53
2021/12/08 12:48:09;;;;;;;6.05;0.93;;;;;;;;;;5066123;28;20049;-56
2021/12/08 12:50:50;;;;;;;3.92;1.05;;;;;;;;;;5079197;28;20059;-51
2021/12/08 12:53:32;;;;;;;4.65;0.90;;;;;;;;;;5073901;28;20051;-50
2021/12/08 12:56:00;;;;;;;4.32;1.08;;;;;;;;;;5062347;28;20197;-52
2021/12/08 12:58:38;;;;;;;4.37;1.00;;;;;;;;;;5061674;28;20048;-55
2021/12/08 13:01:06;;;;;;;5.32;1.13;;;;;;;;;;5043860;28;20290;-55
2021/12/08 13:03:51;;;;;;;5.85;1.05;;;;;;;;;;5049100;28;20068;-55
2021/12/08 13:06:37;;;;;;;6.82;0.95;;;;;;;;;;5032486;28;20079;-51
2021/12/08 13:09:06;;;;;;;2.70;0.98;;;;;;;;;;5050071;28;20082;-56
2021/12/08 13:11:45;;;;;;;;;;;;;;;;;;5047364;28;20061;-57
2021/12/08 13:14:19;;;;;;;3.72;0.80;;;;;;;;;;5050924;28;20034;-56
2021/12/08 13:16:46;;;;;;;6.20;1.13;;;;;;;;;;5045054;28;20139;-56
2021/12/08 13:19:12;;;;;;;6.47;1.35;;;;;;;;;;5048447;28;20059;-54
2021/12/08 13:21:39;;;;;;;10.63;1.45;;;;;;;;;;5043945;28;20851;-54
2021/12/08 13:24:27;;;;;;;1.15;0.70;;;;;;;;;;5047933;28;20076;-55
2021/12/08 13:26:59;;;;;;;3.42;1.10;;;;;;;;;;5049865;28;20057;-53
2021/12/08 13:29:25;;;;;;;6.20;1.20;;;;;;;;;;5047613;28;20137;-55
2021/12/08 13:31:59;;;;;;;12.23;1.30;;;;;;;;;;5044062;28;20052;-55
2021/12/08 13:34:33;;;;;;;4.78;1.00;;;;;;;;;;5048096;28;20076;-53
2021/12/08 13:37:12;;;;;;;2.33;0.93;;;;;;;;;;5044064;28;20064;-52
2021/12/08 13:39:42;;;;;;;3.05;0.90;;;;;;;;;;5048150;28;20048;-56
2021/12/08 13:42:10;;;;;;;3.38;0.90;;;;;;;;;;5032503;28;20079;-56
2021/12/08 13:44:38;;;;;;;2.55;0.75;;;;;;;;;;5025427;28;20138;-56
2021/12/08 13:47:06;;;;;;;2.90;1.33;;;;;;;;;;5020776;28;20115;-55
2021/12/08 13:49:35;;;;;;;1.80;0.88;;;;;;;;;;5024374;28;20119;-55
2021/12/08 13:52:14;;;;;;;6.90;1.30;;;;;;;;;;5019049;28;20045;-54
2021/12/08 13:54:43;;;;;;;1.65;0.82;;;;;;;;;;5024806;28;20049;-56
2021/12/08 13:57:25;;;;;;;4.70;1.33;;;;;;;;;;5021305;28;20057;-54
2021/12/08 13:59:52;;;;;;;5.07;0.95;;;;;;;;;;5025286;28;20045;-55
2021/12/08 14:02:20;;;;;;;2.40;0.70;;;;;;;;;;5021595;28;20505;-55
2021/12/08 14:04:47;;;;;;;4.93;1.30;;;;;;;;;;5026509;28;20123;-52
2021/12/08 14:07:16;;;;;;;5.95;1.05;;;;;;;;;;5023359;28;20152;-53
2021/12/08 14:09:44;;;;;;;6.90;1.20;;;;;;;;;;5024998;28;20053;-55
2021/12/08 14:12:10;;;;;;;7.10;1.67;;;;;;;;;;5025166;28;20041;-53
2021/12/08 14:14:39;;;;;;;5.22;1.33;;;;;;;;;;5022110;28;20154;-55
2021/12/08 14:17:05;;;;;;;;;;;;;;;;;;5026542;28;20049;-52
2021/12/08 14:19:37;;;;;;;7.28;1.00;;;;;;;;;;5021383;28;20010;-56
2021/12/08 14:22:04;;;;;;;10.00;1.23;;;;;;;;;;5024389;28;20053;-56
2021/12/08 14:24:31;;;;;;;7.35;1.10;;;;;;;;;;5021844;28;20125;-56
2021/12/08 14:26:59;;;;;;;2.55;0.98;;;;;;;;;;5026039;28;20132;-54
2021/12/08 14:29:26;;;;;;;5.60;1.20;;;;;;;;;;5040024;28;20080;-55
2021/12/08 14:31:53;;;;;;;5.00;1.20;;;;;;;;;;5045546;28;20095;-56
2021/12/08 14:34:20;;;;;;;2.60;0.80;;;;;;;;;;5041872;28;20090;-57
2021/12/08 14:36:48;;;;;;;14.68;1.98;;;;;;;;;;5047410;28;20037;-57
2021/12/08 14:39:25;;;;;;;3.88;1.25;;;;;;;;;;5043553;28;20095;-57
2021/12/08 14:41:54;;;;;;;3.95;0.98;;;;;;;;;;5045246;28;20573;-56
2021/12/08 14:44:20;;;;;;;;;;;;;;;;;;5030885;28;20060;-53
2021/12/08 14:46:50;;;;;;;3.03;1.08;;;;;;;;;;5038159;28;19931;-52
2021/12/08 14:49:18;;;;;;;2.38;0.90;;;;;;;;;;5033985;28;20383;-53
2021/12/08 14:51:45;;;;;;;6.32;1.38;;;;;;;;;;5033100;28;20049;-55
2021/12/08 14:54:14;;;;;;;4.90;1.63;;;;;;;;;;5026776;28;20542;-53
2021/12/08 14:56:40;;;;;;;16.08;2.08;;;;;;;;;;5030743;28;20069;-54
2021/12/08 14:59:07;;;;;;;9.68;1.70;;;;;;;;;;5034218;28;20052;-56
2021/12/08 15:01:40;;;;;;;8.13;1.40;;;;;;;;;;5029615;28;20123;-53
2021/12/08 15:04:08;;;;;;;6.68;1.67;;;;;;;;;;5000679;28;20146;-54
2021/12/08 15:06:34;;;;;;;2.42;1.08;;;;;;;;;;5025786;28;20057;-56
2021/12/08 15:09:01;;;;;;;3.40;1.35;;;;;;;;;;5033763;28;20063;-51
2021/12/08 15:11:28;;;;;;;6.93;1.50;;;;;;;;;;5021784;28;20081;-55
2021/12/08 15:13:55;;;;;;;10.23;1.77;;;;;;;;;;5031706;28;20144;-55
2021/12/08 15:16:22;;;;;;;4.38;1.08;;;;;;;;;;5021855;28;20507;-56
2021/12/08 15:18:51;;;;;;;4.88;1.10;;;;;;;;;;5037300;28;20051;-54
2021/12/08 15:21:27;;;;;;;5.50;1.10;;;;;;;;;;5020653;28;20061;-55
2021/12/08 15:24:01;;;;;;;6.15;1.23;;;;;;;;;;5032844;28;20084;-53
2021/12/08 15:26:28;;;;;;;4.18;0.90;;;;;;;;;;5029940;28;20045;-52
2021/12/08 15:28:54;;;;;;;3.45;1.08;;;;;;;;;;5031007;28;20057;-54